Time;durP1;ratioP1;P1;durP2;ratioP2;P2;SDS_P1;SDS_P2;PMS_P1;PMS_P2;Temp;Humidity;BMP_temperature;BMP_pressure;BME280_temperature;BME280_humidity;BME280_pressure;Samples;Min_cycle;Max_cycle;Signal;HPM_P1;HPM_P2
2021/11/16 00:00:06;;;;;;;81.20;46.30;;;;;;;6.35;86.71;100392.56;5060649;28;20626;-81
2021/11/16 00:02:37;;;;;;;81.67;46.43;;;;;;;6.41;87.49;100407.00;5061885;28;20260;-81
2021/11/16 00:05:04;;;;;;;83.47;45.57;;;;;;;6.26;87.35;100390.94;5060202;28;20309;-81
2021/11/16 00:07:32;;;;;;;81.20;46.13;;;;;;;6.33;87.10;100399.06;5028359;28;20235;-82
2021/11/16 00:09:59;;;;;;;79.07;45.33;;;;;;;6.20;87.29;100389.00;5062129;28;20664;-81
2021/11/16 00:12:27;;;;;;;88.63;46.43;;;;;;;6.22;87.79;100397.63;5060223;28;20229;-81
2021/11/16 00:14:54;;;;;;;82.80;47.07;;;;;;;6.25;87.46;100393.78;5061479;28;20186;-82
2021/11/16 00:17:23;;;;;;;84.00;47.03;;;;;;;6.23;87.43;100387.81;5059523;28;20241;-81
2021/11/16 00:19:51;;;;;;;81.43;47.00;;;;;;;6.15;87.92;100397.50;5058759;28;20274;-81
2021/11/16 00:22:19;;;;;;;86.17;47.20;;;;;;;6.08;87.77;100399.16;5058947;28;20317;-81
2021/11/16 00:27:27;;;;;;;75.73;45.20;;;;;;;6.06;88.20;100387.88;5043201;28;20622;-81
2021/11/16 00:29:56;;;;;;;83.50;46.90;;;;;;;6.08;88.60;100387.69;5041618;28;20287;-81
2021/11/16 00:32:25;;;;;;;78.50;44.20;;;;;;;6.15;88.98;100394.84;5041941;28;20248;-81
2021/11/16 00:34:54;;;;;;;83.77;46.37;;;;;;;6.20;88.23;100392.44;5059391;28;20589;-82
2021/11/16 00:37:25;;;;;;;81.30;44.97;;;;;;;6.07;88.55;100376.22;5042398;28;20230;-80
2021/11/16 00:39:57;;;;;;;82.93;46.53;;;;;;;6.16;88.37;100385.81;5060814;28;20297;-80
2021/11/16 00:42:27;;;;;;;81.40;45.37;;;;;;;6.20;88.63;100389.00;5044016;28;20261;-80
2021/11/16 00:44:55;;;;;;;78.70;43.50;;;;;;;6.19;88.77;100377.50;5047434;28;20249;-81
2021/11/16 00:47:23;;;;;;;78.33;44.33;;;;;;;6.16;89.32;100375.19;5066143;28;20220;-81
2021/11/16 00:49:51;;;;;;;82.90;45.87;;;;;;;6.05;88.86;100364.94;5048286;28;20249;-81
2021/11/16 00:52:21;;;;;;;77.90;43.67;;;;;;;6.16;88.85;100385.00;5047325;28;20233;-81
2021/11/16 00:54:48;;;;;;;80.73;45.07;;;;;;;6.04;89.23;100373.06;5048537;28;20336;-83
2021/11/16 00:57:16;;;;;;;78.93;44.27;;;;;;;6.04;89.41;100381.91;5033921;28;20573;-81
2021/11/16 00:59:43;;;;;;;76.33;44.27;;;;;;;6.08;88.68;100391.19;5063773;28;20235;-82
2021/11/16 01:02:11;;;;;;;77.60;43.90;;;;;;;5.94;89.14;100373.28;5063245;28;20298;-80
2021/11/16 01:04:40;;;;;;;76.27;43.27;;;;;;;5.92;89.33;100375.31;5063656;28;20229;-81
2021/11/16 01:07:07;;;;;;;74.90;41.97;;;;;;;6.07;89.61;100383.38;5065585;28;20255;-81
2021/11/16 01:09:35;;;;;;;71.97;42.10;;;;;;;6.05;89.17;100383.56;5067199;28;20216;-81
2021/11/16 01:12:02;;;;;;;74.83;41.33;;;;;;;6.00;88.99;100361.13;5083341;28;20212;-81
2021/11/16 01:14:29;;;;;;;71.13;41.20;;;;;;;6.04;88.77;100368.59;5069548;28;20235;-81
2021/11/16 01:16:57;;;;;;;75.23;41.90;;;;;;;6.12;88.75;100379.19;5067046;28;20628;-81
2021/11/16 01:19:24;;;;;;;73.47;41.73;;;;;;;6.05;89.40;100380.91;5070358;28;20635;-81
2021/11/16 01:21:54;;;;;;;76.80;43.13;;;;;;;5.95;88.57;100374.94;5085420;28;20278;-81
2021/11/16 01:24:21;;;;;;;79.30;43.67;;;;;;;5.92;89.37;100363.84;5049935;28;20279;-81
2021/11/16 01:26:50;;;;;;;82.07;43.57;;;;;;;5.98;89.17;100376.41;5051707;28;20213;-81
2021/11/16 01:29:20;;;;;;;75.67;43.17;;;;;;;5.98;89.33;100365.78;5071386;23;20232;-81
2021/11/16 01:31:50;;;;;;;76.03;39.93;;;;;;;6.02;89.14;100385.75;5049356;28;20182;-81
2021/11/16 01:34:26;;;;;;;79.43;43.87;;;;;;;6.03;89.05;100382.06;5047697;28;20225;-81
2021/11/16 01:36:54;;;;;;;79.73;42.57;;;;;;;6.04;89.37;100376.56;5050176;28;20232;-81
2021/11/16 01:39:24;;;;;;;77.13;42.87;;;;;;;6.09;89.03;100374.22;5066837;28;20229;-81
2021/11/16 01:41:52;;;;;;;83.80;43.80;;;;;;;6.11;89.26;100387.38;5065579;28;20233;-81
2021/11/16 01:44:19;;;;;;;85.50;44.90;;;;;;;6.16;89.42;100383.16;5066969;28;20260;-81
2021/11/16 01:46:46;;;;;;;82.93;44.17;;;;;;;6.17;89.56;100368.03;5066267;28;20229;-81
2021/11/16 01:49:13;;;;;;;77.33;43.57;;;;;;;6.18;89.39;100380.34;5065438;28;20205;-81
2021/11/16 01:51:40;;;;;;;81.03;43.67;;;;;;;6.10;89.43;100375.06;5065142;28;20232;-81
2021/11/16 01:54:21;;;;;;;87.67;43.53;;;;;;;6.21;89.37;100390.63;5050328;28;20267;-82
2021/11/16 01:56:51;;;;;;;88.47;45.03;;;;;;;6.09;89.70;100371.56;5065871;28;20243;-81
2021/11/16 01:59:19;;;;;;;92.30;45.77;;;;;;;6.25;89.70;100381.31;5067258;28;20209;-81
2021/11/16 02:01:49;;;;;;;83.70;44.87;;;;;;;6.34;89.20;100395.41;5064434;28;20532;-80
2021/11/16 02:04:20;;;;;;;84.77;44.33;;;;;;;6.33;89.28;100389.25;5047598;28;20559;-81
2021/11/16 02:06:48;;;;;;;87.40;45.47;;;;;;;6.23;89.79;100363.84;5064463;28;20225;-81
2021/11/16 02:09:17;;;;;;;83.37;43.60;;;;;;;6.28;90.10;100372.16;5082141;28;20252;-81
2021/11/16 02:11:46;;;;;;;83.57;44.30;;;;;;;6.30;89.35;100380.81;5063579;28;20324;-81
2021/11/16 02:14:21;;;;;;;84.17;45.60;;;;;;;6.38;89.99;100380.75;5064767;28;20225;-81
2021/11/16 02:16:50;;;;;;;84.27;45.13;;;;;;;6.43;89.50;100365.09;5062810;28;20221;-80
2021/11/16 02:19:19;;;;;;;86.47;44.33;;;;;;;6.47;89.25;100372.56;5062894;28;20255;-81
2021/11/16 02:21:47;;;;;;;83.93;44.33;;;;;;;6.53;89.21;100368.38;5062555;28;20225;-81
2021/11/16 02:24:16;;;;;;;90.17;46.23;;;;;;;6.52;88.96;100372.03;5062082;28;20229;-81
2021/11/16 02:26:43;;;;;;;85.17;43.90;;;;;;;6.46;89.56;100351.41;5062432;28;20221;-81
2021/11/16 02:29:12;;;;;;;82.90;43.37;;;;;;;6.50;89.01;100358.88;5046128;28;20536;-81
2021/11/16 02:31:39;;;;;;;87.27;44.63;;;;;;;6.57;89.13;100367.00;5062687;28;20225;-80
2021/11/16 02:34:07;;;;;;;87.27;45.37;;;;;;;6.53;89.38;100371.81;5062192;28;20202;-81
2021/11/16 02:36:35;;;;;;;86.17;45.90;;;;;;;6.56;89.32;100363.50;5062213;28;20275;-81
2021/11/16 02:39:09;;;;;;;78.67;43.87;;;;;;;6.54;89.12;100356.69;5064404;28;20233;-81
2021/11/16 02:41:39;;;;;;;81.23;44.50;;;;;;;6.53;89.27;100355.06;5049213;28;20236;-81
2021/11/16 02:44:07;;;;;;;85.27;45.60;;;;;;;6.55;89.50;100348.53;5062768;28;20255;-82
2021/11/16 02:46:34;;;;;;;85.23;45.93;;;;;;;6.54;89.22;100346.88;5047115;28;20233;-81
2021/11/16 02:49:03;;;;;;;83.13;43.40;;;;;;;6.62;88.83;100333.50;5047377;28;20652;-81
2021/11/16 02:51:33;;;;;;;78.67;44.10;;;;;;;6.58;88.86;100348.16;5064828;28;20182;-80
2021/11/16 02:54:01;;;;;;;75.87;42.80;;;;;;;6.54;88.92;100330.91;5029008;28;20259;-81
2021/11/16 02:56:28;;;;;;;86.10;45.47;;;;;;;6.54;89.22;100332.72;5046118;28;20225;-81
2021/11/16 02:58:56;;;;;;;81.23;45.10;;;;;;;6.54;88.98;100336.22;5063757;28;20256;-81
2021/11/16 03:01:23;;;;;;;75.37;42.67;;;;;;;6.60;88.74;100340.84;5048857;28;20233;-81
2021/11/16 03:03:50;;;;;;;74.47;43.67;;;;;;;6.59;88.53;100333.84;5048497;28;20221;-81
2021/11/16 03:06:20;;;;;;;72.77;41.97;;;;;;;6.68;88.91;100337.28;5062303;28;20226;-81
2021/11/16 03:08:49;;;;;;;71.17;41.60;;;;;;;6.62;89.03;100344.16;5064190;28;20240;-81
2021/11/16 03:11:19;;;;;;;72.37;42.10;;;;;;;6.55;88.91;100358.34;5062315;28;20244;-81
2021/11/16 03:13:46;;;;;;;81.37;44.57;;;;;;;6.50;88.97;100350.06;5046247;28;20229;-81
2021/11/16 03:16:20;;;;;;;79.20;43.40;;;;;;;6.47;88.83;100345.94;5041812;28;20237;-81
2021/11/16 03:18:53;;;;;;;73.90;42.40;;;;;;;6.58;89.08;100339.34;5076245;28;20199;-82
2021/11/16 03:21:24;;;;;;;69.87;42.00;;;;;;;6.60;88.76;100350.66;5062367;28;20239;-82
2021/11/16 03:23:55;;;;;;;71.57;41.83;;;;;;;6.59;88.98;100349.84;5060030;28;20225;-81
2021/11/16 03:26:24;;;;;;;68.13;41.30;;;;;;;6.56;88.76;100334.22;5045256;28;20255;-80
2021/11/16 03:28:53;;;;;;;71.80;41.07;;;;;;;6.61;88.54;100349.66;5046196;28;20225;-80
2021/11/16 03:34:05;;;;;;;68.00;41.13;;;;;;;6.59;88.56;100341.84;5045082;28;20209;-80
2021/11/16 03:36:35;;;;;;;65.60;38.77;;;;;;;6.61;88.32;100355.00;5045473;28;20226;-80
2021/11/16 03:39:03;;;;;;;61.67;39.33;;;;;;;6.53;88.34;100341.75;5042481;28;20656;-81
2021/11/16 03:41:31;;;;;;;63.77;38.37;;;;;;;6.61;88.46;100344.34;5055337;28;20289;-81
2021/11/16 03:43:58;;;;;;;60.43;37.67;;;;;;;6.55;88.58;100347.69;5022268;28;20298;-80
2021/11/16 03:46:26;;;;;;;64.37;39.03;;;;;;;6.50;87.71;100328.75;5054454;28;20304;-80
2021/11/16 03:48:55;;;;;;;61.37;37.60;;;;;;;6.54;88.04;100336.22;5055246;28;20222;-80
2021/11/16 03:51:22;;;;;;;59.77;38.30;;;;;;;6.46;87.76;100324.78;5038967;28;20254;-81
2021/11/16 03:53:49;;;;;;;59.30;38.37;;;;;;;6.50;87.99;100329.59;5056260;28;20320;-81
2021/11/16 03:56:17;;;;;;;58.60;38.47;;;;;;;6.47;88.24;100321.13;5056005;28;20276;-81
2021/11/16 03:58:47;;;;;;;60.53;37.33;;;;;;;6.44;87.78;100314.31;5055687;28;20218;-80
2021/11/16 04:01:16;;;;;;;58.60;37.70;;;;;;;6.51;88.31;100327.75;5055310;28;20275;-81
2021/11/16 04:03:44;;;;;;;56.87;36.50;;;;;;;6.48;88.26;100331.63;5042402;28;20244;-81
2021/11/16 04:06:11;;;;;;;55.27;36.27;;;;;;;6.47;88.46;100313.97;5056177;28;20222;-81
2021/11/16 04:08:38;;;;;;;55.20;36.40;;;;;;;6.45;88.65;100328.47;5056507;28;20649;-80
2021/11/16 04:11:06;;;;;;;56.30;37.13;;;;;;;6.50;89.04;100318.13;5038577;28;20807;-80
2021/11/16 04:13:35;;;;;;;60.07;36.83;;;;;;;6.48;88.53;100315.66;5039735;28;20230;-80
2021/11/16 04:16:04;;;;;;;58.60;36.60;;;;;;;6.49;88.64;100319.94;5040040;28;20209;-81
2021/11/16 04:18:32;;;;;;;59.17;37.67;;;;;;;6.50;88.54;100318.94;5060226;28;20330;-81
2021/11/16 04:21:00;;;;;;;59.97;38.30;;;;;;;6.56;88.56;100320.91;5044052;28;20214;-81
2021/11/16 04:23:31;;;;;;;61.00;37.57;;;;;;;6.49;88.31;100305.81;5044238;28;20256;-80
2021/11/16 04:25:58;;;;;;;56.10;36.73;;;;;;;6.54;89.06;100303.44;5043722;28;20252;-81
2021/11/16 04:28:27;;;;;;;53.37;35.67;;;;;;;6.60;88.29;100308.06;5043768;28;20268;-80
2021/11/16 04:31:03;;;;;;;55.50;36.23;;;;;;;6.61;87.99;100312.38;5065242;23;20236;-81
2021/11/16 04:33:30;;;;;;;54.47;36.30;;;;;;;6.60;87.85;100302.75;5065540;28;20279;-81
2021/11/16 04:35:57;;;;;;;54.33;36.00;;;;;;;6.62;88.19;100306.88;5051176;28;20271;-80
2021/11/16 04:38:26;;;;;;;53.30;36.30;;;;;;;6.53;88.19;100304.47;5065915;28;20286;-81
2021/11/16 04:40:57;;;;;;;52.57;34.93;;;;;;;6.49;88.01;100298.66;5063144;28;20720;-81
2021/11/16 04:43:27;;;;;;;52.50;35.17;;;;;;;6.49;87.52;100301.31;5064112;28;20233;-81
2021/11/16 04:46:02;;;;;;;53.40;36.27;;;;;;;6.45;87.24;100304.50;5067445;28;20268;-81
2021/11/16 04:48:48;;;;;;;51.83;35.47;;;;;;;6.40;87.25;100321.00;5069426;28;20229;-81
2021/11/16 05:02:44;;;;;;;51.77;34.63;;;;;;;6.02;87.64;100324.56;5010096;28;20223;-80
2021/11/16 05:05:16;;;;;;;54.13;35.27;;;;;;;5.93;88.07;100321.06;5008973;28;20238;-80
2021/11/16 05:07:45;;;;;;;51.70;34.47;;;;;;;5.82;87.45;100321.44;5006660;28;20228;-81
2021/11/16 05:10:12;;;;;;;53.30;35.87;;;;;;;5.71;87.63;100317.31;4989290;28;20258;-80
2021/11/16 05:12:40;;;;;;;54.00;36.87;;;;;;;5.59;88.71;100317.88;5005936;28;20184;-80
2021/11/16 05:15:16;;;;;;;56.17;36.03;;;;;;;5.56;88.21;100307.56;5007163;28;20278;-80
2021/11/16 05:17:53;;;;;;;53.50;35.17;;;;;;;5.59;88.89;100325.84;5007611;28;20223;-80
2021/11/16 05:20:21;;;;;;;55.33;36.23;;;;;;;5.63;88.59;100335.13;5007379;28;20275;-80
2021/11/16 05:22:52;;;;;;;55.87;37.43;;;;;;;5.58;88.57;100332.16;4988469;28;20224;-81
2021/11/16 05:25:20;;;;;;;56.77;36.00;;;;;;;5.58;88.88;100333.00;5004295;28;20223;-80
2021/11/16 05:27:49;;;;;;;65.05;45.00;;;;;;;5.61;88.90;100332.63;5003778;28;20467;-80
2021/11/16 05:30:24;;;;;;;58.53;38.53;;;;;;;5.51;89.49;100329.34;5006545;28;20540;-80
2021/11/16 05:33:01;;;;;;;56.97;37.00;;;;;;;5.51;89.05;100334.66;5007464;28;20270;-80
2021/11/16 05:35:28;;;;;;;55.13;34.97;;;;;;;5.39;88.99;100308.59;5023006;28;20251;-79
2021/11/16 05:37:57;;;;;;;55.47;35.87;;;;;;;5.40;89.50;100326.22;5006283;28;20239;-80
2021/11/16 05:40:26;;;;;;;56.43;36.97;;;;;;;5.46;89.83;100326.34;5058638;23;20229;-80
2021/11/16 05:42:53;;;;;;;59.77;38.50;;;;;;;5.40;89.87;100312.94;5072803;28;20246;-80
2021/11/16 05:45:28;;;;;;;58.73;37.67;;;;;;;5.40;89.42;100326.22;5086147;23;20236;-83
2021/11/16 05:47:56;;;;;;;61.13;37.30;;;;;;;5.43;90.10;100318.72;5049764;28;20572;-80
2021/11/16 05:50:23;;;;;;;55.87;36.97;;;;;;;5.52;89.09;100328.34;5079293;28;20229;-80
2021/11/16 05:52:49;;;;;;;64.03;41.00;;;;;;;5.54;89.26;100331.69;5069024;23;20237;-80
2021/11/16 05:55:16;;;;;;;65.03;38.90;;;;;;;5.50;89.81;100319.72;5067461;28;20204;-80
2021/11/16 05:57:48;;;;;;;66.63;40.07;;;;;;;5.55;89.61;100316.56;5093242;22;20220;-80
2021/11/16 06:00:17;;;;;;;65.67;40.20;;;;;;;5.53;90.00;100323.84;5075951;23;20570;-81
2021/11/16 06:02:43;;;;;;;60.97;40.90;;;;;;;5.61;90.34;100331.81;5088654;28;20502;-80
2021/11/16 06:05:13;;;;;;;66.00;40.07;;;;;;;5.61;89.78;100315.84;5111314;23;20234;-80
2021/11/16 06:07:41;;;;;;;61.10;39.87;;;;;;;5.72;89.93;100331.44;5101924;22;20581;-80
2021/11/16 06:10:08;;;;;;;59.50;39.97;;;;;;;5.73;89.95;100331.28;5105624;28;20222;-80
2021/11/16 06:12:42;;;;;;;62.37;40.00;;;;;;;5.91;89.58;100343.53;5088265;28;20427;-81
2021/11/16 06:15:20;;;;;;;63.30;41.53;;;;;;;6.01;89.21;100341.50;5113635;28;20499;-81
2021/11/16 06:18:14;;;;;;;64.57;41.57;;;;;;;6.04;89.40;100333.19;5097424;28;20215;-81
2021/11/16 06:20:45;;;;;;;60.63;40.97;;;;;;;6.14;88.75;100334.63;5095768;28;20227;-82
2021/11/16 06:23:23;;;;;;;62.33;40.83;;;;;;;6.16;89.23;100337.09;5095427;28;20227;-81
2021/11/16 06:26:12;;;;;;;57.03;39.00;;;;;;;6.24;88.94;100333.59;5176828;23;20223;-80
2021/11/16 06:28:41;;;;;;;55.33;38.03;;;;;;;6.24;87.69;100328.25;5079406;23;20657;-80
2021/11/16 06:31:09;;;;;;;53.07;36.73;;;;;;;6.35;88.23;100342.00;5104002;28;20291;-81
2021/11/16 06:33:36;;;;;;;49.27;35.00;;;;;;;6.36;88.27;100340.16;5087917;28;20247;-80
2021/11/16 06:36:04;;;;;;;53.60;36.07;;;;;;;6.44;87.30;100340.13;5102083;28;20224;-80
2021/11/16 06:38:34;;;;;;;51.00;35.73;;;;;;;6.51;86.60;100341.06;5111003;22;20223;-80
2021/11/16 06:41:03;;;;;;;51.00;34.63;;;;;;;6.49;86.04;100335.09;5103958;28;20216;-80
2021/11/16 06:43:33;;;;;;;48.50;34.40;;;;;;;6.60;86.54;100330.19;5072018;28;20327;-80
2021/11/16 06:46:03;;;;;;;49.83;35.13;;;;;;;6.73;86.46;100336.75;5116720;22;20231;-81
2021/11/16 06:48:31;;;;;;;52.43;35.37;;;;;;;6.77;85.07;100338.06;5093200;22;20232;-80
2021/11/16 06:51:00;;;;;;;46.80;34.10;;;;;;;6.77;85.22;100338.88;5105413;28;20224;-81
2021/11/16 06:53:35;;;;;;;47.83;34.50;;;;;;;6.79;84.50;100333.38;5086613;28;20314;-81
2021/11/16 06:56:08;;;;;;;46.83;35.23;;;;;;;6.93;84.23;100345.94;5103809;28;20211;-81
2021/11/16 06:58:36;;;;;;;49.90;34.50;;;;;;;6.84;83.67;100342.50;5103861;28;20229;-81
2021/11/16 07:01:04;;;;;;;46.80;34.33;;;;;;;6.90;84.08;100348.97;5086604;28;20184;-80
2021/11/16 07:03:32;;;;;;;43.80;33.20;;;;;;;7.01;83.28;100354.69;5086672;28;20250;-80
2021/11/16 07:06:04;;;;;;;46.50;33.33;;;;;;;7.04;83.75;100346.34;5086290;28;20228;-80
2021/11/16 07:08:38;;;;;;;47.07;33.30;;;;;;;7.09;82.67;100345.81;5085542;28;20208;-80
2021/11/16 07:11:18;;;;;;;48.70;33.87;;;;;;;7.17;82.80;100348.41;5086083;28;20200;-80
2021/11/16 07:13:59;;;;;;;46.20;32.67;;;;;;;7.16;82.25;100345.91;5104328;28;20235;-80
2021/11/16 07:16:32;;;;;;;41.30;31.30;;;;;;;7.22;82.19;100353.19;5102691;28;20291;-80
2021/11/16 07:19:03;;;;;;;47.10;31.97;;;;;;;7.34;81.71;100352.56;5105722;28;20227;-81
2021/11/16 07:21:46;;;;;;;41.43;30.90;;;;;;;7.38;81.92;100345.03;5104442;28;20244;-80
2021/11/16 07:25:05;;;;;;;41.43;31.33;;;;;;;7.52;80.45;100349.53;5086769;28;20230;-80
2021/11/16 07:27:36;;;;;;;39.20;30.00;;;;;;;7.64;80.61;100360.59;5109660;22;20298;-81
2021/11/16 07:30:09;;;;;;;42.40;30.37;;;;;;;7.55;79.85;100346.53;5103282;28;20218;-81
2021/11/16 07:32:52;;;;;;;42.80;30.23;;;;;;;7.76;79.05;100348.47;5102596;28;20246;-80
2021/11/16 07:35:31;;;;;;;42.40;31.40;;;;;;;7.83;78.34;100350.22;5085272;28;20228;-79
2021/11/16 07:38:01;;;;;;;42.63;32.47;;;;;;;7.82;78.52;100345.91;5103677;28;20531;-80
2021/11/16 07:40:29;;;;;;;44.90;31.60;;;;;;;7.97;78.59;100353.91;5102552;28;20289;-80
2021/11/16 07:43:17;;;;;;;39.57;30.20;;;;;;;8.09;77.89;100351.56;5071993;28;20275;-80
2021/11/16 07:45:49;;;;;;;41.90;30.53;;;;;;;8.26;78.17;100351.16;5104965;28;20695;-81
2021/11/16 07:48:24;;;;;;;38.77;29.67;;;;;;;8.25;77.28;100340.69;5106008;23;20243;-80
2021/11/16 07:50:59;;;;;;;33.33;26.70;;;;;;;8.33;76.50;100344.13;5067610;28;20499;-82
2021/11/16 07:53:30;;;;;;;37.27;27.93;;;;;;;8.50;76.01;100343.88;5065254;28;20231;-82
2021/11/16 07:56:04;;;;;;;32.80;27.03;;;;;;;8.63;75.77;100349.38;5064534;28;20678;-80
2021/11/16 07:58:38;;;;;;;33.93;26.17;;;;;;;8.75;75.15;100346.00;5048919;28;20252;-81
2021/11/16 08:01:42;;;;;;;33.13;25.87;;;;;;;8.78;74.45;100342.13;5084424;28;20287;-80
2021/11/16 08:06:55;;;;;;;30.73;23.87;;;;;;;8.91;74.17;100347.63;5065160;28;20240;-83
2021/11/16 08:12:04;;;;;;;30.43;23.80;;;;;;;9.00;73.82;100342.97;5033086;28;20218;-81
2021/11/16 08:14:31;;;;;;;32.07;25.00;;;;;;;9.01;73.33;100341.91;5045380;28;20727;-80
2021/11/16 08:17:04;;;;;;;29.77;23.43;;;;;;;9.04;72.85;100355.75;5062316;28;20236;-81
2021/11/16 08:19:34;;;;;;;28.97;22.70;;;;;;;9.17;72.22;100345.16;5046011;28;20263;-81
2021/11/16 08:22:10;;;;;;;27.53;22.77;;;;;;;9.17;72.22;100345.16;5027794;28;20287;-81
2021/11/16 08:24:40;;;;;;;27.30;22.03;;;;;;;9.17;72.21;100338.97;5028860;28;20255;-79
2021/11/16 08:27:29;;;;;;;28.50;22.97;;;;;;;9.36;71.62;100358.88;5037060;28;20298;-81
2021/11/16 08:30:09;;;;;;;27.70;22.70;;;;;;;9.35;71.83;100350.03;5049153;28;20285;-81
2021/11/16 08:32:39;;;;;;;30.07;22.97;;;;;;;9.30;71.05;100349.78;5050140;28;20654;-81
2021/11/16 08:35:10;;;;;;;33.80;25.80;;;;;;;9.20;71.50;100341.25;5047024;28;20213;-80
2021/11/16 08:37:43;;;;;;;31.13;23.63;;;;;;;9.17;71.33;100323.78;5029810;28;20324;-81
2021/11/16 08:40:15;;;;;;;31.27;22.73;;;;;;;9.25;71.39;100345.00;5029415;28;20260;-80
2021/11/16 08:42:52;;;;;;;27.17;21.40;;;;;;;9.18;70.77;100338.81;5040236;28;20224;-81
2021/11/16 08:45:25;;;;;;;27.00;21.77;;;;;;;9.31;71.32;100335.41;5063236;28;20512;-81
2021/11/16 08:47:57;;;;;;;26.47;21.47;;;;;;;9.39;70.01;100343.25;5064746;28;20228;-81
2021/11/16 08:50:29;;;;;;;26.83;21.23;;;;;;;9.47;70.23;100335.09;5032399;28;20598;-80
2021/11/16 08:52:57;;;;;;;26.63;21.57;;;;;;;9.55;69.67;100339.47;5048636;28;20252;-81
2021/11/16 08:55:28;;;;;;;25.80;21.20;;;;;;;9.59;69.68;100335.38;5064008;28;20259;-81
2021/11/16 08:57:56;;;;;;;27.03;21.70;;;;;;;9.66;69.46;100326.38;5083864;28;20215;-81
2021/11/16 09:00:29;;;;;;;24.90;20.57;;;;;;;9.83;68.94;100340.28;5048260;28;20263;-81
2021/11/16 09:03:06;;;;;;;25.40;20.23;;;;;;;9.97;68.30;100333.97;5061621;28;20564;-80
2021/11/16 09:05:36;;;;;;;25.50;19.57;;;;;;;10.03;67.51;100333.16;5044443;28;20257;-81
2021/11/16 09:08:04;;;;;;;32.57;29.07;;;;;;;10.24;67.62;100329.56;5044609;28;20265;-81
2021/11/16 09:10:35;;;;;;;27.37;22.63;;;;;;;10.27;66.76;100328.34;5045431;28;20233;-83
2021/11/16 09:13:04;;;;;;;25.30;19.77;;;;;;;10.36;66.53;100325.28;5030579;28;20244;-83
2021/11/16 09:15:36;;;;;;;24.37;19.87;;;;;;;10.53;65.59;100329.25;5027357;28;20291;-83
2021/11/16 09:18:11;;;;;;;22.67;17.60;;;;;;;10.70;64.33;100310.13;5061206;28;20339;-81
2021/11/16 09:20:39;;;;;;;21.60;16.40;;;;;;;10.71;63.32;100304.56;5046246;28;20228;-81
2021/11/16 09:23:06;;;;;;;19.80;14.90;;;;;;;10.79;63.40;100317.75;5046645;28;20240;-81
2021/11/16 09:25:39;;;;;;;17.63;14.50;;;;;;;10.97;62.49;100311.78;5045968;28;20229;-81
2021/11/16 09:28:36;;;;;;;18.57;14.03;;;;;;;11.00;61.77;100316.75;5045207;28;20245;-79
2021/11/16 09:31:20;;;;;;;17.80;12.93;;;;;;;11.11;60.44;100313.44;5062021;28;20213;-80
2021/11/16 09:33:48;;;;;;;16.77;12.67;;;;;;;11.19;59.60;100312.44;5081730;28;20228;-83
2021/11/16 09:36:42;;;;;;;15.00;12.37;;;;;;;11.25;59.00;100299.00;5063261;28;20221;-81
2021/11/16 09:39:12;;;;;;;14.73;12.60;;;;;;;11.25;58.90;100290.94;5065841;28;20220;-81
2021/11/16 09:41:45;;;;;;;16.83;12.80;;;;;;;11.38;58.31;100303.53;5065448;28;20225;-80
2021/11/16 09:44:48;;;;;;;14.73;13.00;;;;;;;11.45;57.51;100301.66;5082270;28;20256;-81
2021/11/16 09:47:22;;;;;;;16.07;12.97;;;;;;;11.51;57.49;100300.00;5064308;28;20576;-81
2021/11/16 09:50:03;;;;;;;13.73;11.30;;;;;;;11.60;57.42;100296.88;5064013;28;20228;-81
2021/11/16 09:52:47;;;;;;;15.50;11.67;;;;;;;11.53;57.14;100298.75;5064278;28;20228;-81
2021/11/16 09:55:23;;;;;;;14.07;11.07;;;;;;;11.66;57.07;100295.22;5065059;28;20566;-82
2021/11/16 09:58:20;;;;;;;13.67;10.87;;;;;;;11.68;56.45;100283.22;5043575;28;20229;-81
2021/11/16 10:00:48;;;;;;;14.17;11.33;;;;;;;11.80;56.45;100288.81;5042218;28;20225;-79
2021/11/16 10:03:18;;;;;;;13.07;10.90;;;;;;;11.90;55.91;100283.81;5061238;28;20233;-80
2021/11/16 10:05:54;;;;;;;16.93;10.57;;;;;;;11.96;55.44;100279.44;5028342;28;20214;-79
2021/11/16 10:08:22;;;;;;;19.47;14.60;;;;;;;11.92;55.24;100271.00;5045623;28;20229;-79
2021/11/16 10:10:53;;;;;;;16.67;12.20;;;;;;;11.87;55.47;100270.81;5044057;28;20243;-79
2021/11/16 10:13:28;;;;;;;13.60;11.40;;;;;;;11.99;55.87;100273.69;5028175;28;20225;-79
2021/11/16 10:15:57;;;;;;;15.03;12.30;;;;;;;12.03;55.30;100266.84;5043269;28;20232;-78
2021/11/16 10:18:25;;;;;;;15.03;11.00;;;;;;;11.76;55.15;100258.03;5044376;28;20229;-79
2021/11/16 10:20:52;;;;;;;14.40;11.53;;;;;;;11.88;55.17;100261.72;5043667;28;20296;-79
2021/11/16 10:23:47;;;;;;;15.43;12.17;;;;;;;11.94;54.91;100250.16;5026655;28;20286;-79
2021/11/16 10:26:14;;;;;;;14.33;12.30;;;;;;;11.94;54.84;100250.16;5027845;28;20233;-81
2021/11/16 10:28:44;;;;;;;14.57;12.57;;;;;;;11.89;55.22;100236.53;5061305;28;20314;-79
2021/11/16 10:31:11;;;;;;;13.73;12.27;;;;;;;11.93;55.22;100235.06;5027864;28;20245;-79
2021/11/16 10:33:39;;;;;;;14.87;11.80;;;;;;;12.06;55.11;100237.69;5028382;28;20282;-78
2021/11/16 10:36:11;;;;;;;14.07;11.53;;;;;;;12.08;54.65;100226.75;5027080;28;20256;-80
2021/11/16 10:38:41;;;;;;;14.50;11.67;;;;;;;12.16;55.12;100229.16;5027034;28;20275;-78
2021/11/16 10:41:12;;;;;;;18.10;13.03;;;;;;;12.22;54.31;100217.56;5044167;28;20594;-79
2021/11/16 10:43:44;;;;;;;15.60;11.50;;;;;;;12.23;54.72;100211.13;5025977;28;20247;-79
2021/11/16 10:46:11;;;;;;;14.33;12.20;;;;;;;12.36;54.34;100209.19;5041436;28;20279;-79
2021/11/16 10:48:39;;;;;;;15.47;13.83;;;;;;;12.46;54.11;100211.38;5042482;28;20225;-79
2021/11/16 10:51:09;;;;;;;12.57;10.77;;;;;;;12.52;54.15;100215.91;5047251;28;20310;-78
2021/11/16 10:53:37;;;;;;;13.63;11.10;;;;;;;12.63;53.86;100204.47;5058313;23;20288;-78
2021/11/16 10:56:10;;;;;;;12.00;10.03;;;;;;;12.73;52.24;100210.16;5094670;28;20217;-79
2021/11/16 10:58:42;;;;;;;10.87;8.70;;;;;;;12.84;51.82;100200.53;5064744;28;20591;-79
2021/11/16 11:01:13;;;;;;;9.80;8.80;;;;;;;12.96;50.95;100206.03;5078468;28;20236;-78
2021/11/16 11:03:43;;;;;;;9.27;8.27;;;;;;;13.06;50.51;100198.28;5064489;28;20568;-79
2021/11/16 11:06:20;;;;;;;9.97;9.07;;;;;;;13.02;49.79;100195.19;5078682;28;20225;-79
2021/11/16 11:08:55;;;;;;;9.50;8.50;;;;;;;12.86;49.39;100184.19;5065685;28;20219;-79
2021/11/16 11:11:22;;;;;;;9.90;8.90;;;;;;;12.98;49.48;100187.78;5055341;28;20247;-79
2021/11/16 11:14:10;;;;;;;9.73;8.50;;;;;;;12.92;48.92;100177.94;5080375;28;20635;-79
2021/11/16 11:17:05;;;;;;;12.17;8.13;;;;;;;13.04;47.76;100168.09;5082575;28;20528;-79
2021/11/16 11:19:35;;;;;;;10.20;8.40;;;;;;;13.13;48.20;100161.41;5072333;28;20268;-80
2021/11/16 11:24:51;;;;;;;9.10;7.87;;;;;;;13.19;47.60;100150.59;5102294;28;20231;-79
2021/11/16 11:27:37;;;;;;;11.00;8.13;;;;;;;13.40;46.70;100170.81;5094058;28;20247;-78
2021/11/16 11:30:12;;;;;;;10.07;7.63;;;;;;;13.12;47.66;100163.25;5065059;28;20236;-78
2021/11/16 11:32:42;;;;;;;8.63;7.63;;;;;;;13.07;47.08;100152.31;5080266;28;20224;-79
2021/11/16 11:35:10;;;;;;;7.93;7.13;;;;;;;13.13;47.49;100159.53;5062066;28;20289;-79
2021/11/16 11:37:41;;;;;;;10.87;7.80;;;;;;;13.20;47.31;100152.19;5079343;28;20188;-79
2021/11/16 11:40:09;;;;;;;10.00;7.73;;;;;;;13.18;46.68;100150.78;5079293;28;20228;-78
2021/11/16 11:42:44;;;;;;;10.27;8.13;;;;;;;13.00;47.41;100145.38;5082564;28;20220;-78
2021/11/16 11:48:06;;;;;;;8.97;8.07;;;;;;;13.01;47.31;100145.16;5083844;28;20219;-79
2021/11/16 11:50:45;;;;;;;10.10;8.30;;;;;;;12.99;47.57;100139.16;5066288;28;20243;-80
2021/11/16 11:53:14;;;;;;;9.73;7.60;;;;;;;12.78;48.29;100128.84;5082312;28;20231;-78
2021/11/16 11:55:50;;;;;;;10.40;8.60;;;;;;;13.03;48.16;100134.97;5081805;28;20230;-79
2021/11/16 11:58:19;;;;;;;10.30;8.57;;;;;;;13.12;47.88;100135.53;5064676;28;20563;-80
2021/11/16 12:00:48;;;;;;;9.43;8.43;;;;;;;12.91;48.03;100127.88;5080451;28;20223;-78
2021/11/16 12:03:15;;;;;;;9.07;8.10;;;;;;;12.93;47.83;100123.91;5065499;28;20231;-78